KSZL/SZL METAR and TAF weather

Enter ICAO airport designator
Station Type Date Time Source
KSZL METAR 2019/08/26 06:56 UTC NOAA

KSZL 260656Z 30009KT 10SM BKN003 19/19 A2974 RMK AO2A SLP068 T01920192 FZRANO $


Station Type Date Time Source
KSZL Decoded METAR 2019/08/26 06:56 UTC NOAA

Station name not available
Aug 26, 2019 - 02:56 AM EDT / 2019.08.26 0656 UTC
Wind: from the WNW (300 degrees) at 10 MPH (9 KT):0
Visibility: 10 mile(s):0
Sky conditions: mostly cloudy
Temperature: 66.6 F (19.2 C)
Dew Point: 66.6 F (19.2 C)
Relative Humidity: 100%
Pressure (altimeter): 29.74 in. Hg (1007 hPa)
ob: KSZL 260656Z 30009KT 10SM BKN003 19/19 A2974 RMK AO2A SLP068 T01920192 FZRANO
cycle: 7

Station Type Date Time Source
KSZL TAF 2019/08/26 07:58 UTC NOAA

TAF
AMD KSZL 260700Z 2607/2709 19006KT 9999 BKN020 BKN080 QNH2978INS
TEMPO 2607/2611 4800 BR
BECMG 2613/2614 19009KT 9999 SCT050 BKN100 QNH2975INS
BECMG 2616/2617 VRB15G25KT 4800 TSRA BKN030CB BKN080 QNH2973INS
BECMG 2618/2619 19006KT 9999 NSW BKN050 QNH2965INS
TEMPO 2623/2703 VRB15G25KT 3200 TSRA BKN030CB BKN080 OVC120 TX28/2621Z TN18/2611Z

Example: see airport list